Foxpark, Wyoming
Current Conditions -  °F | °C
As of 11:53 PM on Tuesday 21 Oct 2014 (Local Time) from KLAR Reporting Station
Broken Clouds Broken Clouds  
Wind Chill: 39°   Ceiling: 7500
Heat Index: 42°   Visibility: 10mi
Dew Point: 38°   Wind: 5mph
Humidity: 85%   Direction: 200°SSW
Pressure: 30.08"   Gusts: NA
Location:  41.2601°N, 105.565°W
Report Text: KLAR 220553Z AUTO 20004KT 10SM BKN075 06/03 A3008 RMK AO2 RAE04 SLP108 P0000 60001 T00560033 10117 20056 51007
Loading
Personal Weather Stations






























Interactive Weather Map
Tropical Storm Tracking
New forecast layout! Learn more

10-Day Weather Forecast

Advertisements
Track Severe Weather on mobile